Time;durP1;ratioP1;P1;durP2;ratioP2;P2;SDS_P1;SDS_P2;PMS_P1;PMS_P2;Temp;Humidity;BMP_temperature;BMP_pressure;BME280_temperature;BME280_humidity;BME280_pressure;Samples;Min_cycle;Max_cycle;Signal;HPM_P1;HPM_P2
2021/12/24 00:02:18;;;;;;;21.33;11.80;;;5.70;72.70;;;;;;5134704;27;20027;-74
2021/12/24 00:04:43;;;;;;;14.63;7.90;;;5.70;73.40;;;;;;5123130;27;20463;-73
2021/12/24 00:07:09;;;;;;;15.50;7.50;;;5.70;73.70;;;;;;5131745;27;20490;-74
2021/12/24 00:09:36;;;;;;;16.08;8.10;;;5.80;73.70;;;;;;5133210;27;20054;-74
2021/12/24 00:12:10;;;;;;;15.88;7.97;;;5.80;73.70;;;;;;5139224;27;20394;-74
2021/12/24 00:14:36;;;;;;;19.08;8.40;;;5.80;73.70;;;;;;5112613;28;20020;-74
2021/12/24 00:17:04;;;;;;;17.45;7.25;;;5.90;73.40;;;;;;5130036;27;20485;-74
2021/12/24 00:22:32;;;;;;;12.80;7.03;;;5.90;73.10;;;;;;5132823;27;20505;-73
2021/12/24 00:35:53;;;;;;;19.88;8.57;;;5.80;72.50;;;;;;5134579;27;20030;-73
2021/12/24 00:38:19;;;;;;;14.20;6.45;;;5.80;72.50;;;;;;5118017;27;20027;-74
2021/12/24 00:40:46;;;;;;;12.88;6.28;;;5.80;72.50;;;;;;5133949;27;20023;-74
2021/12/24 00:43:14;;;;;;;11.43;6.05;;;5.80;73.10;;;;;;5123487;27;20015;-74
2021/12/24 00:45:42;;;;;;;9.30;5.47;;;5.80;73.50;;;;;;5135599;27;20076;-74
2021/12/24 00:48:11;;;;;;;15.95;7.25;;;5.80;74.20;;;;;;5135008;27;20031;-74
2021/12/24 00:55:59;;;;;;;13.65;7.13;;;6.00;73.70;;;;;;5136702;27;20447;-75
2021/12/24 00:58:24;;;;;;;14.23;7.18;;;6.10;73.70;;;;;;5128100;27;20016;-74
2021/12/24 01:00:51;;;;;;;19.13;7.43;;;6.20;73.70;;;;;;5133483;27;20027;-74
2021/12/24 01:03:16;;;;;;;15.38;7.18;;;6.20;73.50;;;;;;5123156;27;20115;-75
2021/12/24 01:05:43;;;;;;;13.48;7.43;;;6.30;73.50;;;;;;5123810;27;20542;-75
2021/12/24 01:08:11;;;;;;;14.60;7.68;;;6.30;73.20;;;;;;5124658;27;20031;-74
2021/12/24 01:10:47;;;;;;;16.08;7.57;;;6.30;73.20;;;;;;5099079;27;20038;-74
2021/12/24 01:13:14;;;;;;;17.55;7.28;;;6.40;73.50;;;;;;5123959;27;20415;-74
2021/12/24 01:15:51;;;;;;;12.60;7.25;;;6.40;73.10;;;;;;5130963;27;20072;-75
2021/12/24 01:18:49;;;;;;;12.95;6.93;;;6.40;73.10;;;;;;5133921;27;20494;-74
2021/12/24 01:23:48;;;;;;;13.93;7.68;;;6.40;73.00;;;;;;5134914;27;20023;-74
2021/12/24 01:26:22;;;;;;;16.67;7.68;;;6.40;73.00;;;;;;5135607;27;20045;-74
2021/12/24 01:44:48;;;;;;;15.27;8.52;;;6.50;72.30;;;;;;5124170;27;20050;-75
2021/12/24 01:47:14;;;;;;;17.52;9.50;;;6.50;72.30;;;;;;5150057;27;20019;-75
2021/12/24 01:49:40;;;;;;;21.40;8.75;;;6.50;72.40;;;;;;5118403;27;20031;-75
2021/12/24 01:52:06;;;;;;;23.00;10.15;;;6.40;72.30;;;;;;5134394;27;20024;-74
2021/12/24 01:54:33;;;;;;;20.20;9.77;;;6.40;72.30;;;;;;5135064;27;20475;-74
2021/12/24 01:56:58;;;;;;;21.35;10.27;;;6.40;72.30;;;;;;5114483;27;20020;-75
2021/12/24 01:59:24;;;;;;;20.15;10.10;;;6.40;72.30;;;;;;5135011;27;20038;-74
2021/12/24 02:01:51;;;;;;;16.83;9.23;;;6.40;72.20;;;;;;5139258;27;20107;-74
2021/12/24 02:04:18;;;;;;;14.93;8.57;;;6.40;72.10;;;;;;5138399;27;20024;-75
2021/12/24 02:06:44;;;;;;;18.77;10.38;;;6.40;72.10;;;;;;5120368;27;20408;-75
2021/12/24 02:09:10;;;;;;;17.83;9.82;;;6.40;72.10;;;;;;5139958;27;20067;-74
2021/12/24 02:11:38;;;;;;;21.45;10.55;;;6.40;72.10;;;;;;5141997;27;20137;-75
2021/12/24 02:14:10;;;;;;;20.10;10.15;;;6.40;72.10;;;;;;5132246;27;20015;-75
2021/12/24 02:16:49;;;;;;;19.92;10.35;;;6.40;72.00;;;;;;5115761;27;20031;-75
2021/12/24 02:30:12;;;;;;;17.58;8.98;;;6.50;71.90;;;;;;5134062;27;19968;-74
2021/12/24 02:32:42;;;;;;;17.50;9.82;;;6.40;71.40;;;;;;5133605;27;20031;-74
2021/12/24 02:35:09;;;;;;;15.75;8.95;;;6.40;71.60;;;;;;5116351;27;20023;-75
2021/12/24 02:37:35;;;;;;;16.40;9.57;;;6.40;71.80;;;;;;5133245;27;20034;-75
2021/12/24 02:40:02;;;;;;;17.98;8.93;;;6.30;71.90;;;;;;5133314;27;20023;-75
2021/12/24 02:42:27;;;;;;;18.20;9.60;;;6.30;72.10;;;;;;5088883;27;20368;-75
2021/12/24 02:44:53;;;;;;;17.40;8.55;;;6.20;72.20;;;;;;5115705;27;20027;-74
2021/12/24 02:55:03;;;;;;;14.40;7.78;;;6.30;72.80;;;;;;5131426;27;20116;-74
2021/12/24 02:57:31;;;;;;;17.33;8.88;;;6.40;72.70;;;;;;5133132;27;20030;-74
2021/12/24 03:00:06;;;;;;;15.15;7.25;;;6.40;72.70;;;;;;5133057;27;20053;-74
2021/12/24 03:02:38;;;;;;;15.75;8.20;;;6.40;73.00;;;;;;5106917;28;20118;-74
2021/12/24 03:05:05;;;;;;;12.77;7.65;;;6.50;73.20;;;;;;5125496;27;20034;-75
2021/12/24 03:07:30;;;;;;;15.48;7.85;;;6.50;73.10;;;;;;5124983;27;20034;-74
2021/12/24 03:09:59;;;;;;;15.57;7.80;;;6.60;73.30;;;;;;5133878;27;20035;-75
2021/12/24 03:12:27;;;;;;;14.82;8.00;;;6.70;73.10;;;;;;5132592;27;20391;-74
2021/12/24 03:14:53;;;;;;;15.32;7.80;;;6.70;73.20;;;;;;5115254;27;20023;-74
2021/12/24 03:17:23;;;;;;;14.70;7.80;;;6.80;73.20;;;;;;5132987;27;20027;-74
2021/12/24 03:19:49;;;;;;;16.52;7.60;;;6.80;73.30;;;;;;5118890;27;20031;-74
2021/12/24 03:22:35;;;;;;;12.73;7.18;;;6.90;73.10;;;;;;5118639;27;20023;-74
2021/12/24 03:25:00;;;;;;;15.02;7.07;;;6.90;73.00;;;;;;5131896;27;20455;-74
2021/12/24 03:27:26;;;;;;;12.20;7.57;;;7.00;73.00;;;;;;5119382;27;20030;-74
2021/12/24 03:29:52;;;;;;;17.50;7.95;;;7.00;72.90;;;;;;5121789;27;20449;-75
2021/12/24 03:32:18;;;;;;;12.43;7.40;;;7.00;72.80;;;;;;5115162;27;20364;-75
2021/12/24 03:34:44;;;;;;;15.07;7.15;;;7.10;72.70;;;;;;5133126;27;20030;-75
2021/12/24 03:37:10;;;;;;;11.60;6.45;;;7.10;72.60;;;;;;5104102;27;20103;-75
2021/12/24 03:39:36;;;;;;;13.13;6.38;;;7.10;72.60;;;;;;5110687;28;20399;-75
2021/12/24 03:42:03;;;;;;;13.25;7.60;;;7.10;72.60;;;;;;5130038;27;20034;-75
2021/12/24 03:44:36;;;;;;;12.93;6.95;;;7.20;72.70;;;;;;5115366;28;20027;-74
2021/12/24 03:47:14;;;;;;;11.35;6.28;;;7.20;72.70;;;;;;5113794;28;20023;-75
2021/12/24 03:54:58;;;;;;;12.80;6.82;;;7.30;72.40;;;;;;5127348;28;20072;-74
2021/12/24 03:57:37;;;;;;;13.23;6.20;;;7.30;72.40;;;;;;5132359;28;20035;-75
2021/12/24 04:00:16;;;;;;;12.40;6.25;;;7.30;72.40;;;;;;5133576;28;20466;-74
2021/12/24 04:02:42;;;;;;;12.52;6.53;;;7.40;72.40;;;;;;5113854;28;20465;-74
2021/12/24 04:05:08;;;;;;;12.80;6.38;;;7.40;72.20;;;;;;5115797;28;20038;-74
2021/12/24 04:07:34;;;;;;;11.38;6.72;;;7.40;72.10;;;;;;5126453;27;20059;-74
2021/12/24 04:10:08;;;;;;;10.07;6.18;;;7.40;72.10;;;;;;5125407;28;20074;-74
2021/12/24 04:12:35;;;;;;;10.82;6.25;;;7.40;72.00;;;;;;5111373;28;20502;-74
2021/12/24 04:15:01;;;;;;;12.32;6.35;;;7.40;72.00;;;;;;5133454;27;20557;-74
2021/12/24 04:17:31;;;;;;;10.82;6.75;;;7.40;71.90;;;;;;5123013;27;20111;-74
2021/12/24 04:25:25;;;;;;;14.30;6.10;;;7.50;71.80;;;;;;5132312;27;20176;-74
2021/12/24 04:27:52;;;;;;;13.90;6.97;;;7.50;71.70;;;;;;5102138;28;20038;-74
2021/12/24 04:30:24;;;;;;;11.63;6.60;;;7.50;71.60;;;;;;5118975;28;20039;-74
2021/12/24 04:32:59;;;;;;;11.90;7.10;;;7.50;71.50;;;;;;5113892;28;20387;-75
2021/12/24 04:51:39;;;;;;;14.77;7.85;;;7.60;70.90;;;;;;5123503;27;20556;-75
2021/12/24 05:04:36;;;;;;;15.88;8.50;;;7.50;70.80;;;;;;5134306;27;20065;-75
2021/12/24 05:07:11;;;;;;;12.35;7.68;;;7.50;70.60;;;;;;5136212;27;20015;-75
2021/12/24 05:09:40;;;;;;;13.07;7.88;;;7.50;70.80;;;;;;5103635;28;20027;-75
2021/12/24 05:12:06;;;;;;;13.25;8.00;;;7.50;70.80;;;;;;5132537;27;20023;-75
2021/12/24 05:14:32;;;;;;;16.02;7.68;;;7.50;70.80;;;;;;5128796;27;20031;-75
2021/12/24 05:17:20;;;;;;;12.07;7.45;;;7.50;70.70;;;;;;5136397;27;20027;-75
2021/12/24 05:22:32;;;;;;;13.50;8.02;;;7.50;70.60;;;;;;5131886;27;20568;-75
2021/12/24 05:24:59;;;;;;;12.73;7.93;;;7.50;70.60;;;;;;5128363;27;20031;-75
2021/12/24 05:27:25;;;;;;;14.05;8.23;;;7.50;70.60;;;;;;5108734;27;20476;-75
2021/12/24 05:29:51;;;;;;;15.65;9.27;;;7.50;70.50;;;;;;5128380;27;20071;-75
2021/12/24 05:32:16;;;;;;;15.55;8.32;;;7.50;70.40;;;;;;5117483;27;20058;-75
2021/12/24 05:34:42;;;;;;;14.23;8.18;;;7.50;70.40;;;;;;5116370;27;20072;-75
2021/12/24 05:37:07;;;;;;;13.05;8.10;;;7.50;70.40;;;;;;5141658;27;20027;-75
2021/12/24 05:39:34;;;;;;;12.98;7.85;;;7.50;70.30;;;;;;5123887;27;20072;-75
2021/12/24 05:42:01;;;;;;;15.65;7.82;;;7.50;70.40;;;;;;5133335;27;20033;-75
2021/12/24 05:44:27;;;;;;;15.35;9.07;;;7.50;70.30;;;;;;5136943;27;20027;-75
2021/12/24 05:46:52;;;;;;;15.23;8.45;;;7.50;70.20;;;;;;5127432;27;20028;-75
2021/12/24 05:49:18;;;;;;;16.10;9.18;;;7.50;70.20;;;;;;5122439;27;20058;-75
2021/12/24 05:51:45;;;;;;;15.82;8.50;;;7.50;70.20;;;;;;5116179;27;20042;-75
2021/12/24 05:54:11;;;;;;;16.45;8.88;;;7.50;70.20;;;;;;5135399;27;20531;-73
2021/12/24 05:56:36;;;;;;;16.33;8.82;;;7.50;70.10;;;;;;5133447;27;20047;-73
2021/12/24 05:59:03;;;;;;;14.32;7.88;;;7.50;70.00;;;;;;5110027;27;20155;-73
2021/12/24 06:01:29;;;;;;;13.80;8.13;;;7.50;70.00;;;;;;5134126;27;20039;-74
2021/12/24 06:03:54;;;;;;;14.40;8.25;;;7.50;70.00;;;;;;5114550;27;20053;-74
2021/12/24 06:06:20;;;;;;;16.20;8.30;;;7.50;70.00;;;;;;5115794;27;20528;-74
2021/12/24 06:08:46;;;;;;;19.20;9.13;;;7.50;70.00;;;;;;5135214;27;20019;-73
2021/12/24 06:11:12;;;;;;;15.18;8.18;;;7.50;69.90;;;;;;5133685;27;20068;-74
2021/12/24 06:13:37;;;;;;;14.98;7.90;;;7.50;70.00;;;;;;5127445;27;20482;-74
2021/12/24 06:16:06;;;;;;;16.33;8.57;;;7.50;69.90;;;;;;5138383;27;20026;-74
2021/12/24 06:18:32;;;;;;;14.50;8.52;;;7.50;69.80;;;;;;5126841;27;20030;-74
2021/12/24 06:21:03;;;;;;;14.90;9.05;;;7.50;69.80;;;;;;5141854;27;20106;-74
2021/12/24 06:23:30;;;;;;;15.68;8.80;;;7.50;69.80;;;;;;5137075;27;20422;-74
2021/12/24 06:25:58;;;;;;;15.45;9.02;;;7.50;69.80;;;;;;5125367;27;20138;-74
2021/12/24 06:28:25;;;;;;;14.63;8.68;;;7.50;69.70;;;;;;5117494;27;20031;-74
2021/12/24 06:30:51;;;;;;;13.85;8.43;;;7.50;69.70;;;;;;5114220;28;20049;-73
2021/12/24 06:33:17;;;;;;;14.23;8.85;;;7.50;69.70;;;;;;5114104;27;20030;-74
2021/12/24 06:35:43;;;;;;;14.85;8.40;;;7.50;69.70;;;;;;5134112;27;20019;-74
2021/12/24 06:38:09;;;;;;;14.57;8.77;;;7.50;69.70;;;;;;5115244;27;20383;-74
2021/12/24 06:40:35;;;;;;;15.30;8.48;;;7.50;69.60;;;;;;5115394;27;20501;-74
2021/12/24 06:43:01;;;;;;;15.25;8.35;;;7.50;69.70;;;;;;5131074;27;20113;-74
2021/12/24 06:45:28;;;;;;;17.08;8.65;;;7.50;69.70;;;;;;5133951;27;20550;-74
2021/12/24 06:47:56;;;;;;;15.85;8.63;;;7.50;69.70;;;;;;5111780;28;20034;-74
2021/12/24 06:50:23;;;;;;;16.83;8.60;;;7.50;69.70;;;;;;5130552;27;20066;-74
2021/12/24 06:52:49;;;;;;;17.38;7.53;;;7.50;69.60;;;;;;5133171;27;20046;-74
2021/12/24 06:55:16;;;;;;;18.02;8.43;;;7.50;69.60;;;;;;5128615;27;20106;-74
2021/12/24 06:57:43;;;;;;;13.48;8.63;;;7.50;69.60;;;;;;5134209;27;20483;-74
2021/12/24 07:00:19;;;;;;;14.82;8.48;;;7.50;69.50;;;;;;5124408;27;20595;-74
2021/12/24 07:02:46;;;;;;;14.32;7.90;;;7.50;69.50;;;;;;5134537;27;20023;-74
2021/12/24 07:05:12;;;;;;;15.25;8.85;;;7.50;69.60;;;;;;5111310;27;20816;-74
2021/12/24 07:07:38;;;;;;;15.27;8.82;;;7.50;69.50;;;;;;5107061;28;20020;-73
2021/12/24 07:10:05;;;;;;;14.23;8.40;;;7.60;69.50;;;;;;5125735;27;20126;-74
2021/12/24 07:12:31;;;;;;;13.00;8.05;;;7.60;69.60;;;;;;5115123;27;20057;-74
2021/12/24 07:14:57;;;;;;;16.13;8.70;;;7.60;69.60;;;;;;5132337;27;20055;-74
2021/12/24 07:17:23;;;;;;;15.18;8.70;;;7.60;69.60;;;;;;5133652;27;20364;-73
2021/12/24 07:19:49;;;;;;;13.77;8.30;;;7.60;69.60;;;;;;5112753;27;20530;-74
2021/12/24 07:22:17;;;;;;;14.88;8.60;;;7.60;69.60;;;;;;5133661;27;20023;-74
2021/12/24 07:24:43;;;;;;;14.93;7.90;;;7.60;69.60;;;;;;5132344;27;20023;-74
2021/12/24 07:27:09;;;;;;;15.52;8.35;;;7.70;69.60;;;;;;5108411;28;20023;-74
2021/12/24 07:29:35;;;;;;;14.10;8.50;;;7.60;69.60;;;;;;5120104;27;20138;-74
2021/12/24 07:32:00;;;;;;;17.00;8.77;;;7.60;69.60;;;;;;5116069;27;20489;-73
2021/12/24 07:34:26;;;;;;;13.20;8.10;;;7.60;69.60;;;;;;5131027;27;20037;-74
2021/12/24 07:36:52;;;;;;;18.58;9.15;;;7.60;69.60;;;;;;5133200;27;20027;-74
2021/12/24 07:39:17;;;;;;;16.17;9.05;;;7.60;69.60;;;;;;5132614;27;20031;-74
2021/12/24 07:41:43;;;;;;;15.95;9.02;;;7.60;69.60;;;;;;5115146;28;20049;-74
2021/12/24 07:44:09;;;;;;;18.52;9.27;;;7.70;69.60;;;;;;5132392;28;20047;-73
2021/12/24 07:46:45;;;;;;;14.60;8.43;;;7.70;69.60;;;;;;5133415;27;20076;-74
2021/12/24 07:52:08;;;;;;;15.45;8.25;;;7.60;69.60;;;;;;5139130;27;20546;-74
2021/12/24 07:54:38;;;;;;;24.48;10.70;;;7.70;69.80;;;;;;5142845;27;20077;-74
2021/12/24 07:57:04;;;;;;;20.95;9.82;;;7.70;69.80;;;;;;5115174;28;20506;-72
2021/12/24 07:59:30;;;;;;;17.45;8.57;;;7.70;69.90;;;;;;5122568;27;20463;-73
2021/12/24 08:01:56;;;;;;;17.20;8.27;;;7.70;69.90;;;;;;5131266;28;20019;-73
2021/12/24 08:04:23;;;;;;;14.68;8.77;;;7.70;69.90;;;;;;5110180;28;20020;-73
2021/12/24 08:06:49;;;;;;;14.10;8.23;;;7.70;69.90;;;;;;5133296;28;20027;-73
2021/12/24 08:09:15;;;;;;;15.38;8.35;;;7.70;69.90;;;;;;5130607;27;20536;-72
2021/12/24 08:11:41;;;;;;;15.82;8.35;;;7.70;69.90;;;;;;5126132;27;20031;-73
2021/12/24 08:14:07;;;;;;;14.77;8.73;;;7.70;69.90;;;;;;5110174;27;20023;-72
2021/12/24 08:16:34;;;;;;;12.35;8.13;;;7.70;70.00;;;;;;5128323;27;20027;-72
2021/12/24 08:19:02;;;;;;;261.20;86.72;;;7.70;70.00;;;;;;5119571;27;20026;-73
2021/12/24 08:21:28;;;;;;;147.70;59.58;;;7.70;70.10;;;;;;5109034;27;20108;-73
2021/12/24 08:23:53;;;;;;;88.32;36.78;;;7.70;70.10;;;;;;5123684;27;20445;-72
2021/12/24 08:26:21;;;;;;;110.78;42.72;;;7.70;70.10;;;;;;5098832;27;20035;-72
2021/12/24 08:28:47;;;;;;;99.65;37.83;;;7.70;70.10;;;;;;5116483;27;20030;-72
2021/12/24 08:31:13;;;;;;;46.67;22.40;;;7.70;70.20;;;;;;5134496;27;20444;-72
2021/12/24 08:33:39;;;;;;;49.72;21.98;;;7.70;70.20;;;;;;5126082;27;20137;-72
2021/12/24 08:36:06;;;;;;;48.50;22.10;;;7.70;70.20;;;;;;5131654;27;20079;-72
2021/12/24 08:38:32;;;;;;;55.58;23.15;;;7.70;70.40;;;;;;5135511;27;20035;-72
2021/12/24 08:40:58;;;;;;;31.27;14.90;;;7.70;70.40;;;;;;5138716;27;20031;-72
2021/12/24 08:43:24;;;;;;;22.58;13.05;;;7.70;70.50;;;;;;5124657;27;20023;-72
2021/12/24 08:45:49;;;;;;;27.45;15.07;;;7.70;70.60;;;;;;5109150;27;20027;-72
2021/12/24 08:48:15;;;;;;;26.90;11.93;;;7.70;70.60;;;;;;5129420;27;20079;-72
2021/12/24 08:50:41;;;;;;;19.88;10.30;;;7.70;70.70;;;;;;5114496;27;20033;-72
2021/12/24 08:53:07;;;;;;;20.05;10.65;;;7.70;70.70;;;;;;5105342;27;20027;-72
2021/12/24 08:55:34;;;;;;;49.90;24.83;;;7.70;70.70;;;;;;5128982;27;20055;-72
2021/12/24 08:58:00;;;;;;;25.33;14.10;;;7.80;70.80;;;;;;5111660;28;20035;-73
2021/12/24 09:00:26;;;;;;;15.15;9.27;;;7.80;70.90;;;;;;5134451;27;20068;-72
2021/12/24 09:02:51;;;;;;;16.23;9.05;;;7.70;70.90;;;;;;5132935;27;20561;-72
2021/12/24 09:05:17;;;;;;;14.50;9.38;;;7.70;70.90;;;;;;5104759;27;20487;-72
2021/12/24 09:07:43;;;;;;;15.88;9.23;;;7.80;71.10;;;;;;5100090;27;20024;-72
2021/12/24 09:10:11;;;;;;;17.55;10.10;;;7.70;71.00;;;;;;5132501;27;20027;-72
2021/12/24 09:12:37;;;;;;;18.25;8.88;;;7.70;71.10;;;;;;5110268;27;20058;-72
2021/12/24 09:15:04;;;;;;;16.17;8.52;;;7.70;71.10;;;;;;5136369;27;20062;-71
2021/12/24 09:17:31;;;;;;;15.73;7.82;;;7.80;71.20;;;;;;5109649;27;20542;-73
2021/12/24 09:19:57;;;;;;;15.63;8.73;;;7.80;71.30;;;;;;5100441;27;20027;-72
2021/12/24 09:22:29;;;;;;;14.38;8.02;;;7.80;71.40;;;;;;5108480;28;20027;-72
2021/12/24 09:24:56;;;;;;;13.05;7.70;;;7.80;71.40;;;;;;5110148;27;20472;-72
2021/12/24 09:27:22;;;;;;;17.33;8.75;;;7.80;71.30;;;;;;5126686;27;20079;-72
2021/12/24 09:29:48;;;;;;;12.98;8.05;;;7.80;71.50;;;;;;5124019;27;20051;-73
2021/12/24 09:32:14;;;;;;;17.08;8.27;;;7.80;71.60;;;;;;5131563;27;20038;-73
2021/12/24 09:34:41;;;;;;;13.38;7.90;;;7.80;71.70;;;;;;5130800;27;20096;-72
2021/12/24 09:37:07;;;;;;;15.05;8.18;;;7.80;71.70;;;;;;5136361;27;20463;-72
2021/12/24 09:39:34;;;;;;;20.08;9.38;;;7.80;71.70;;;;;;5133135;27;20107;-73
2021/12/24 09:42:01;;;;;;;13.52;7.97;;;7.80;71.70;;;;;;5108941;27;20042;-72
2021/12/24 09:44:27;;;;;;;11.82;7.55;;;7.80;71.70;;;;;;5114768;27;20030;-72
2021/12/24 09:46:54;;;;;;;13.82;7.65;;;7.80;71.70;;;;;;5122664;27;20471;-75
2021/12/24 09:49:20;;;;;;;13.88;7.78;;;7.80;71.80;;;;;;5118045;27;20110;-74
2021/12/24 09:51:50;;;;;;;11.82;7.50;;;7.90;71.90;;;;;;5118846;27;20028;-73
2021/12/24 09:54:19;;;;;;;14.90;6.97;;;7.90;71.80;;;;;;5122272;27;20020;-73
2021/12/24 09:56:46;;;;;;;13.32;7.03;;;7.90;71.80;;;;;;5106135;27;20518;-73
2021/12/24 09:59:12;;;;;;;14.65;9.07;;;7.90;71.90;;;;;;5122730;27;20085;-73
2021/12/24 10:01:43;;;;;;;13.00;8.15;;;7.90;71.80;;;;;;5124751;27;20019;-73
2021/12/24 10:04:19;;;;;;;13.75;7.45;;;7.90;71.90;;;;;;5120901;27;20065;-73
2021/12/24 10:07:06;;;;;;;16.63;7.97;;;7.90;72.00;;;;;;5108288;27;20051;-74
2021/12/24 10:09:37;;;;;;;11.88;7.32;;;7.90;71.90;;;;;;5084555;27;20023;-75
2021/12/24 10:12:07;;;;;;;15.50;7.95;;;7.90;71.80;;;;;;5103037;27;20495;-75
2021/12/24 10:14:39;;;;;;;12.68;7.63;;;8.00;71.90;;;;;;5103259;27;20255;-75
2021/12/24 10:17:13;;;;;;;11.43;7.28;;;7.90;72.00;;;;;;5102322;27;20034;-76
2021/12/24 10:19:49;;;;;;;12.40;7.38;;;8.00;72.00;;;;;;5114675;27;20023;-74
2021/12/24 10:22:16;;;;;;;12.40;6.80;;;8.00;72.30;;;;;;5117743;27;20042;-74
2021/12/24 10:24:41;;;;;;;11.43;6.93;;;8.00;72.10;;;;;;5110817;27;20051;-74
2021/12/24 10:27:08;;;;;;;12.90;7.97;;;8.00;72.10;;;;;;5108787;27;20050;-74
2021/12/24 10:29:38;;;;;;;14.88;8.23;;;8.00;72.30;;;;;;5106125;28;20051;-73
2021/12/24 10:32:22;;;;;;;10.98;6.32;;;8.00;72.60;;;;;;5117336;27;20031;-76
2021/12/24 10:34:47;;;;;;;12.38;7.28;;;8.10;72.80;;;;;;5117359;27;20023;-74
2021/12/24 10:37:26;;;;;;;13.70;6.82;;;8.00;72.40;;;;;;5126660;27;20572;-74
2021/12/24 10:39:55;;;;;;;11.82;7.15;;;8.10;72.80;;;;;;5107523;27;20027;-74
2021/12/24 10:42:31;;;;;;;12.70;7.10;;;8.10;72.70;;;;;;5114854;27;20395;-74
2021/12/24 10:44:59;;;;;;;13.60;7.30;;;8.10;73.10;;;;;;5132280;27;20031;-73
2021/12/24 10:47:32;;;;;;;10.25;6.47;;;8.10;72.80;;;;;;5115710;27;20070;-74
2021/12/24 10:50:11;;;;;;;14.48;6.43;;;8.20;72.90;;;;;;5129908;27;20031;-74
2021/12/24 10:55:26;;;;;;;11.02;6.07;;;8.30;73.10;;;;;;5127362;27;20105;-74
2021/12/24 10:57:53;;;;;;;11.55;6.55;;;8.20;73.00;;;;;;5131793;27;20038;-74
2021/12/24 11:00:24;;;;;;;12.95;6.47;;;8.30;73.20;;;;;;5128379;27;20412;-73
2021/12/24 11:03:03;;;;;;;10.60;6.43;;;8.30;73.40;;;;;;5119841;27;20376;-74
2021/12/24 11:05:38;;;;;;;10.93;6.03;;;8.30;73.80;;;;;;5133499;27;20106;-73
2021/12/24 11:08:07;;;;;;;9.88;5.53;;;8.30;73.60;;;;;;5116515;27;20094;-74
2021/12/24 11:10:37;;;;;;;9.35;5.80;;;8.40;73.70;;;;;;5114274;27;20039;-74
2021/12/24 11:13:11;;;;;;;9.65;6.03;;;8.40;73.60;;;;;;5119165;27;20050;-74
2021/12/24 11:15:50;;;;;;;6.70;4.23;;;8.40;73.90;;;;;;5110979;27;20019;-71
2021/12/24 11:18:27;;;;;;;9.13;5.82;;;8.50;73.80;;;;;;5108945;27;20284;-72
2021/12/24 11:21:00;;;;;;;9.30;5.57;;;8.50;74.20;;;;;;5128292;27;20016;-72
2021/12/24 11:23:28;;;;;;;10.38;5.93;;;8.50;73.80;;;;;;5126826;27;20382;-71
2021/12/24 11:25:57;;;;;;;9.50;5.63;;;8.60;74.00;;;;;;5103021;27;20106;-72
2021/12/24 11:28:25;;;;;;;9.70;5.53;;;8.60;74.10;;;;;;5098688;27;20497;-72
2021/12/24 11:30:54;;;;;;;11.00;5.22;;;8.70;74.00;;;;;;5087603;27;20047;-72
2021/12/24 11:33:25;;;;;;;9.15;5.55;;;8.70;74.40;;;;;;5080938;27;20716;-72
2021/12/24 11:35:53;;;;;;;8.27;5.30;;;8.70;74.50;;;;;;5107556;27;20099;-72
2021/12/24 11:38:24;;;;;;;8.18;4.95;;;8.70;74.00;;;;;;5084586;27;20132;-72
2021/12/24 11:40:52;;;;;;;15.10;9.93;;;8.70;74.10;;;;;;5100367;27;20035;-72
2021/12/24 11:43:21;;;;;;;16.85;7.22;;;8.80;74.20;;;;;;5081923;27;20028;-72
2021/12/24 11:45:47;;;;;;;13.25;7.43;;;8.80;74.20;;;;;;5095984;27;21521;-72
2021/12/24 11:48:13;;;;;;;9.98;5.63;;;8.80;74.30;;;;;;5079564;27;20026;-74
2021/12/24 11:50:40;;;;;;;8.60;5.47;;;8.80;74.20;;;;;;5107761;27;20422;-74
2021/12/24 11:53:08;;;;;;;9.70;5.93;;;8.80;74.20;;;;;;5100422;27;20065;-73
2021/12/24 11:55:48;;;;;;;13.13;8.25;;;8.80;74.20;;;;;;5090282;28;20110;-73
2021/12/24 11:58:19;;;;;;;13.07;8.45;;;8.90;74.70;;;;;;5089547;28;20057;-73
2021/12/24 12:00:47;;;;;;;14.75;7.75;;;8.90;74.40;;;;;;5103765;27;20034;-73
2021/12/24 12:03:37;;;;;;;11.57;6.18;;;8.90;74.50;;;;;;5100975;27;20027;-72
2021/12/24 12:06:29;;;;;;;9.13;5.90;;;8.90;74.70;;;;;;5082389;28;20501;-73
2021/12/24 12:08:57;;;;;;;9.70;5.22;;;8.90;74.50;;;;;;5099832;27;20039;-72
2021/12/24 12:11:26;;;;;;;11.43;5.90;;;8.90;73.90;;;;;;5099733;27;20047;-74
2021/12/24 12:14:37;;;;;;;9.50;5.57;;;8.90;74.30;;;;;;5101002;27;20582;-73
2021/12/24 12:17:06;;;;;;;9.98;6.40;;;9.00;74.60;;;;;;5101369;27;20031;-73
2021/12/24 12:19:45;;;;;;;11.13;6.28;;;8.90;74.20;;;;;;5100099;27;20015;-73
2021/12/24 12:22:18;;;;;;;11.05;5.90;;;8.90;74.40;;;;;;5078640;28;20395;-73
2021/12/24 12:25:04;;;;;;;10.77;6.22;;;8.90;74.10;;;;;;5118376;27;20062;-73
2021/12/24 12:27:33;;;;;;;10.85;6.88;;;9.00;74.10;;;;;;5107485;28;20039;-73
2021/12/24 12:30:19;;;;;;;13.43;7.70;;;8.90;74.10;;;;;;5118088;27;20047;-73
2021/12/24 12:32:46;;;;;;;14.73;7.55;;;8.90;74.50;;;;;;5110496;28;20962;-74
2021/12/24 12:35:13;;;;;;;10.20;6.82;;;9.00;74.50;;;;;;5086866;28;20063;-74
2021/12/24 12:37:53;;;;;;;8.13;4.78;;;8.90;74.60;;;;;;5105790;27;20028;-74
2021/12/24 12:40:19;;;;;;;12.25;7.15;;;9.00;74.60;;;;;;5114579;28;20476;-73
2021/12/24 12:42:58;;;;;;;8.45;4.95;;;9.00;74.80;;;;;;5106693;28;20035;-73
2021/12/24 12:45:32;;;;;;;7.88;5.72;;;9.00;75.00;;;;;;5121739;28;20501;-73
2021/12/24 12:48:00;;;;;;;12.43;7.63;;;9.10;75.30;;;;;;5115280;28;20452;-72
2021/12/24 12:50:28;;;;;;;9.73;5.70;;;9.10;74.90;;;;;;5120690;28;20046;-74
2021/12/24 12:53:21;;;;;;;9.52;5.68;;;9.20;74.80;;;;;;5124498;28;20031;-73
2021/12/24 12:55:48;;;;;;;12.20;6.30;;;9.20;75.10;;;;;;5124430;28;20027;-73
2021/12/24 12:58:24;;;;;;;10.13;6.35;;;9.30;74.70;;;;;;5106342;27;20019;-73
2021/12/24 13:01:05;;;;;;;20.17;9.40;;;9.30;74.70;;;;;;5126793;27;20032;-72
2021/12/24 13:03:54;;;;;;;20.33;11.75;;;9.30;74.90;;;;;;5114480;27;20531;-74
2021/12/24 13:06:20;;;;;;;21.40;12.13;;;9.40;74.60;;;;;;5118164;27;20051;-74
2021/12/24 13:08:46;;;;;;;19.10;10.05;;;9.40;74.70;;;;;;5125110;27;20020;-74
2021/12/24 13:11:18;;;;;;;11.13;7.13;;;9.40;74.60;;;;;;5121121;27;20482;-73
2021/12/24 13:13:52;;;;;;;7.65;5.75;;;9.40;74.60;;;;;;5124053;27;20043;-73
2021/12/24 13:16:19;;;;;;;;;;;9.40;74.40;;;;;;5116848;27;20023;-73
2021/12/24 13:18:58;;;;;;;15.55;8.57;;;9.50;74.50;;;;;;5113601;27;19908;-73
2021/12/24 13:24:13;;;;;;;9.38;6.57;;;9.50;74.10;;;;;;5101322;27;20076;-73
2021/12/24 13:26:40;;;;;;;9.05;5.25;;;9.40;74.10;;;;;;5101605;27;20031;-73
2021/12/24 13:29:12;;;;;;;8.60;5.00;;;9.40;74.00;;;;;;5128767;27;20047;-73
2021/12/24 13:31:40;;;;;;;12.93;7.47;;;9.40;74.10;;;;;;5133112;27;20039;-73
2021/12/24 13:34:12;;;;;;;10.13;5.60;;;9.40;74.20;;;;;;5127894;27;20049;-73
2021/12/24 13:36:38;;;;;;;8.95;5.35;;;9.40;74.20;;;;;;5096201;27;20024;-73
2021/12/24 13:39:12;;;;;;;8.23;4.90;;;9.40;74.20;;;;;;5097992;27;20139;-73
2021/12/24 13:41:41;;;;;;;9.50;5.53;;;9.40;74.20;;;;;;5104219;27;20023;-73
2021/12/24 13:44:18;;;;;;;7.30;5.00;;;9.40;74.20;;;;;;5107158;27;20047;-73
2021/12/24 13:46:44;;;;;;;8.90;4.68;;;9.40;74.30;;;;;;5107008;27;20035;-74
2021/12/24 13:49:23;;;;;;;10.20;6.28;;;9.40;74.10;;;;;;5129818;27;20030;-73
2021/12/24 13:54:35;;;;;;;9.93;5.40;;;9.50;74.40;;;;;;5102631;27;20084;-72
2021/12/24 13:57:04;;;;;;;13.05;6.03;;;9.40;74.10;;;;;;5105262;27;20387;-72
2021/12/24 13:59:31;;;;;;;9.43;6.22;;;9.50;74.30;;;;;;5103981;27;20062;-73
2021/12/24 14:01:57;;;;;;;8.52;5.18;;;9.40;74.30;;;;;;5089085;27;20039;-73
2021/12/24 14:04:23;;;;;;;8.80;5.22;;;9.40;74.20;;;;;;5085872;27;20020;-72
2021/12/24 14:06:54;;;;;;;7.45;5.28;;;9.40;74.30;;;;;;5101849;27;20039;-74
2021/12/24 14:09:30;;;;;;;7.40;4.93;;;9.40;74.50;;;;;;5081387;27;20031;-73
2021/12/24 14:11:56;;;;;;;9.10;5.75;;;9.40;74.60;;;;;;5102619;27;20099;-74
2021/12/24 14:14:30;;;;;;;10.02;7.68;;;9.40;74.50;;;;;;5106030;27;20146;-73
2021/12/24 14:17:47;;;;;;;10.70;5.78;;;9.40;74.50;;;;;;5104227;27;20027;-72
2021/12/24 14:20:05;;;;;;;11.20;6.40;;;9.40;74.50;;;;;;5102221;27;20031;-73
2021/12/24 14:22:33;;;;;;;8.53;5.50;;;9.50;74.50;;;;;;5083829;27;20031;-73
2021/12/24 14:25:08;;;;;;;8.80;5.82;;;9.40;74.20;;;;;;5090825;27;20034;-73
2021/12/24 14:27:37;;;;;;;7.95;5.13;;;9.40;74.40;;;;;;5087250;27;20035;-73
2021/12/24 14:30:11;;;;;;;8.38;5.15;;;9.40;74.30;;;;;;5089496;27;20695;-74
2021/12/24 14:32:40;;;;;;;11.80;6.50;;;9.40;74.70;;;;;;5099526;27;20058;-73
2021/12/24 14:35:16;;;;;;;11.80;7.38;;;9.30;74.30;;;;;;5121702;27;20102;-73
2021/12/24 14:37:52;;;;;;;9.32;5.63;;;9.40;74.60;;;;;;5129963;27;20019;-74
2021/12/24 14:40:18;;;;;;;9.90;5.70;;;9.40;74.40;;;;;;5105718;28;20088;-72
2021/12/24 14:42:52;;;;;;;12.85;7.03;;;9.30;74.30;;;;;;5129763;27;20079;-73
2021/12/24 14:45:35;;;;;;;10.77;6.47;;;9.30;74.50;;;;;;5127828;27;20020;-73
2021/12/24 14:48:16;;;;;;;10.75;6.22;;;9.30;74.50;;;;;;5116820;27;20026;-74